PWSweather.com
Personal Weather Stations
Station Observations

PoschiavoCH

Lat: 46.31962499999999, Lon: 10.066551000000004

Elevation: 3517

Station Type: WH 1080

http://www.meteoposchiavo.com

High Low Average
Temperature 58.0°F14.4°C 35.0°F1.7°C 44.7°F7.1°C
Dew Point 40.9°F4.9°C 23.8°F-4.6°C 33.0°F0.6°C
Winds 5.8 mph 9.3 kmh Calm Calm 1.0 mph SSE1.6 kmh SSE
Wind Gusts 11.5 mph18.5 kmh -- 1.0 mph1.6 kmh
Humidity 95% 44% 65%
Pressure 26.58 in900.1 mb 26.34 in892.0 mb -
Precipitation 0.04 in1.0 mm - -
Hour Temp Dew Point Humidity Winds Wind Gusts Pressure Precip Precip Rate Daily Precip Total
12:00 AM 41.0°F5.0°C 24.2°F-4.3°C 51% Calm Calm -- 26.57 in899.8 mb - 0.00 in0.0 mm 0.00 in0.0 mm
12:10 AM 40.0°F4.4°C 24.7°F-4.1°C 54% Calm Calm -- 26.58 in900.1 mb - 0.00 in0.0 mm 0.00 in0.0 mm
12:15 AM 40.0°F4.4°C 24.7°F-4.1°C 54% Calm Calm -- 26.58 in900.1 mb - 0.00 in0.0 mm 0.00 in0.0 mm
12:20 AM 40.7°F4.8°C 24.9°F-3.9°C 53% Calm Calm -- 26.57 in899.8 mb - 0.00 in0.0 mm 0.00 in0.0 mm
12:25 AM 41.0°F5.0°C 25.6°F-3.6°C 54% Calm Calm -- 26.57 in899.8 mb - 0.00 in0.0 mm 0.00 in0.0 mm
12:30 AM 41.0°F5.0°C 26.9°F-2.8°C 57% Calm Calm -- 26.58 in900.1 mb - 0.00 in0.0 mm 0.00 in0.0 mm
12:35 AM 41.0°F5.0°C 24.2°F-4.3°C 51% Calm Calm -- 26.58 in900.1 mb - 0.00 in0.0 mm 0.00 in0.0 mm
12:40 AM 41.0°F5.0°C 26.1°F-3.3°C 55% Calm Calm -- 26.58 in900.1 mb - 0.00 in0.0 mm 0.00 in0.0 mm
12:45 AM 40.0°F4.4°C 26.0°F-3.3°C 57% Calm Calm -- 26.58 in900.1 mb - 0.00 in0.0 mm 0.00 in0.0 mm
12:50 AM 40.0°F4.4°C 25.1°F-3.8°C 55% Calm Calm -- 26.58 in900.1 mb - 0.00 in0.0 mm 0.00 in0.0 mm
12:55 AM 40.0°F4.4°C 24.7°F-4.1°C 54% Calm Calm -- 26.58 in900.1 mb - 0.00 in0.0 mm 0.00 in0.0 mm
01:00 AM 41.0°F5.0°C 23.8°F-4.6°C 50% Calm Calm -- 26.58 in900.1 mb - 0.00 in0.0 mm 0.00 in0.0 mm
01:10 AM 41.0°F5.0°C 25.2°F-3.8°C 53% Calm Calm -- 26.58 in900.1 mb - 0.00 in0.0 mm 0.00 in0.0 mm
01:15 AM 40.0°F4.4°C 24.2°F-4.3°C 53% Calm Calm -- 26.58 in900.1 mb - 0.00 in0.0 mm 0.00 in0.0 mm
01:20 AM 40.0°F4.4°C 25.6°F-3.6°C 56% Calm Calm -- 26.58 in900.1 mb - 0.00 in0.0 mm 0.00 in0.0 mm
01:25 AM 40.0°F4.4°C 26.0°F-3.3°C 57% Calm Calm -- 26.58 in900.1 mb - 0.00 in0.0 mm 0.00 in0.0 mm
01:30 AM 40.0°F4.4°C 24.7°F-4.1°C 54% Calm Calm 1.2 mph1.9 kmh 26.58 in900.1 mb - 0.00 in0.0 mm 0.00 in0.0 mm
01:35 AM 41.0°F5.0°C 25.2°F-3.8°C 53% Calm Calm -- 26.57 in899.8 mb - 0.00 in0.0 mm 0.00 in0.0 mm
01:40 AM 40.0°F4.4°C 25.6°F-3.6°C 56% Calm Calm -- 26.58 in900.1 mb - 0.00 in0.0 mm 0.00 in0.0 mm
01:45 AM 41.0°F5.0°C 25.6°F-3.6°C 54% Calm Calm -- 26.57 in899.8 mb - 0.00 in0.0 mm 0.00 in0.0 mm
01:50 AM 40.0°F4.4°C 25.6°F-3.6°C 56% Calm Calm -- 26.58 in900.1 mb - 0.00 in0.0 mm 0.00 in0.0 mm
01:55 AM 39.3°F4.1°C 24.4°F-4.2°C 55% Calm Calm -- 26.57 in899.8 mb - 0.00 in0.0 mm 0.00 in0.0 mm
02:00 AM 39.5°F4.2°C 24.6°F-4.1°C 55% Calm Calm -- 26.57 in899.8 mb - 0.00 in0.0 mm 0.00 in0.0 mm
02:10 AM 41.0°F5.0°C 25.2°F-3.8°C 53% Calm Calm -- 26.57 in899.8 mb - 0.00 in0.0 mm 0.00 in0.0 mm
02:15 AM 41.0°F5.0°C 25.6°F-3.6°C 54% Calm Calm -- 26.57 in899.8 mb - 0.00 in0.0 mm 0.00 in0.0 mm
02:20 AM 40.0°F4.4°C 25.6°F-3.6°C 56% Calm Calm -- 26.57 in899.8 mb - 0.00 in0.0 mm 0.00 in0.0 mm
02:25 AM 40.0°F4.4°C 24.2°F-4.3°C 53% Calm Calm 1.2 mph1.9 kmh 26.57 in899.8 mb - 0.00 in0.0 mm 0.00 in0.0 mm
02:30 AM 41.0°F5.0°C 25.6°F-3.6°C 54% Calm Calm -- 26.57 in899.8 mb - 0.00 in0.0 mm 0.00 in0.0 mm
02:35 AM 39.0°F3.9°C 25.0°F-3.9°C 57% Calm Calm -- 26.57 in899.8 mb - 0.00 in0.0 mm 0.00 in0.0 mm
02:40 AM 39.0°F3.9°C 25.9°F-3.4°C 59% Calm Calm -- 26.56 in899.4 mb - 0.00 in0.0 mm 0.00 in0.0 mm
02:45 AM 39.0°F3.9°C 25.5°F-3.6°C 58% Calm Calm 1.2 mph1.9 kmh 26.56 in899.4 mb - 0.00 in0.0 mm 0.00 in0.0 mm
02:50 AM 39.0°F3.9°C 25.5°F-3.6°C 58% Calm Calm 1.2 mph1.9 kmh 26.56 in899.4 mb - 0.00 in0.0 mm 0.00 in0.0 mm
02:55 AM 39.0°F3.9°C 25.9°F-3.4°C 59% Calm Calm -- 26.56 in899.4 mb - 0.00 in0.0 mm 0.00 in0.0 mm
03:00 AM 39.0°F3.9°C 25.9°F-3.4°C 59% Calm Calm -- 26.56 in899.4 mb - 0.00 in0.0 mm 0.00 in0.0 mm
03:10 AM 38.0°F3.3°C 24.5°F-4.2°C 58% Calm Calm -- 26.56 in899.4 mb - 0.00 in0.0 mm 0.00 in0.0 mm
03:15 AM 38.0°F3.3°C 24.5°F-4.2°C 58% Calm Calm -- 26.56 in899.4 mb - 0.00 in0.0 mm 0.00 in0.0 mm
03:20 AM 39.0°F3.9°C 24.6°F-4.1°C 56% Calm Calm -- 26.55 in899.1 mb - 0.00 in0.0 mm 0.00 in0.0 mm
03:25 AM 39.0°F3.9°C 25.5°F-3.6°C 58% Calm Calm -- 26.55 in899.1 mb - 0.00 in0.0 mm 0.00 in0.0 mm
03:30 AM 38.0°F3.3°C 24.9°F-3.9°C 59% Calm Calm -- 26.56 in899.4 mb - 0.00 in0.0 mm 0.00 in0.0 mm
03:35 AM 37.3°F2.9°C 24.3°F-4.3°C 59% Calm Calm -- 26.55 in899.1 mb - 0.00 in0.0 mm 0.00 in0.0 mm
03:40 AM 37.0°F2.8°C 24.0°F-4.4°C 59% Calm Calm -- 26.55 in899.1 mb - 0.00 in0.0 mm 0.00 in0.0 mm
03:45 AM 37.0°F2.8°C 24.0°F-4.4°C 59% Calm Calm -- 26.55 in899.1 mb - 0.00 in0.0 mm 0.00 in0.0 mm
03:50 AM 38.0°F3.3°C 24.9°F-3.9°C 59% Calm Calm -- 26.55 in899.1 mb - 0.00 in0.0 mm 0.00 in0.0 mm
03:55 AM 38.0°F3.3°C 25.3°F-3.7°C 60% Calm Calm -- 26.55 in899.1 mb - 0.00 in0.0 mm 0.00 in0.0 mm
04:00 AM 39.0°F3.9°C 25.5°F-3.6°C 58% Calm Calm -- 26.54 in898.7 mb - 0.00 in0.0 mm 0.00 in0.0 mm
04:10 AM 38.0°F3.3°C 24.9°F-3.9°C 59% Calm Calm -- 26.55 in899.1 mb - 0.00 in0.0 mm 0.00 in0.0 mm
04:15 AM 38.0°F3.3°C 25.3°F-3.7°C 60% Calm Calm -- 26.54 in898.7 mb - 0.00 in0.0 mm 0.00 in0.0 mm
04:20 AM 37.0°F2.8°C 25.2°F-3.8°C 62% Calm Calm -- 26.54 in898.7 mb - 0.00 in0.0 mm 0.00 in0.0 mm
04:25 AM 37.0°F2.8°C 24.4°F-4.2°C 60% Calm Calm -- 26.54 in898.7 mb - 0.00 in0.0 mm 0.00 in0.0 mm
04:30 AM 38.0°F3.3°C 24.9°F-3.9°C 59% Calm Calm -- 26.54 in898.7 mb - 0.00 in0.0 mm 0.00 in0.0 mm
04:35 AM 38.0°F3.3°C 25.7°F-3.5°C 61% Calm Calm -- 26.54 in898.7 mb - 0.00 in0.0 mm 0.00 in0.0 mm
04:40 AM 37.0°F2.8°C 24.4°F-4.2°C 60% Calm Calm -- 26.54 in898.7 mb - 0.00 in0.0 mm 0.00 in0.0 mm
04:45 AM 38.0°F3.3°C 25.3°F-3.7°C 60% Calm Calm -- 26.54 in898.7 mb - 0.00 in0.0 mm 0.00 in0.0 mm
04:50 AM 37.0°F2.8°C 25.6°F-3.6°C 63% Calm Calm -- 26.54 in898.7 mb - 0.00 in0.0 mm 0.00 in0.0 mm
04:55 AM 37.0°F2.8°C 25.2°F-3.8°C 62% Calm Calm -- 26.54 in898.7 mb - 0.00 in0.0 mm 0.00 in0.0 mm
05:00 AM 37.0°F2.8°C 26.3°F-3.2°C 65% Calm Calm -- 26.54 in898.7 mb - 0.00 in0.0 mm 0.00 in0.0 mm
05:10 AM 37.0°F2.8°C 24.4°F-4.2°C 60% Calm Calm 1.2 mph1.9 kmh 26.55 in899.1 mb - 0.00 in0.0 mm 0.00 in0.0 mm
05:15 AM 37.0°F2.8°C 24.0°F-4.4°C 59% Calm Calm 1.2 mph1.9 kmh 26.54 in898.7 mb - 0.00 in0.0 mm 0.00 in0.0 mm
05:20 AM 38.3°F3.5°C 24.8°F-4.0°C 58% Calm Calm 1.2 mph1.9 kmh 26.54 in898.7 mb - 0.00 in0.0 mm 0.00 in0.0 mm
05:25 AM 39.0°F3.9°C 25.0°F-3.9°C 57% Calm Calm 1.2 mph1.9 kmh 26.54 in898.7 mb - 0.00 in0.0 mm 0.00 in0.0 mm
05:30 AM 39.0°F3.9°C 25.0°F-3.9°C 57% Calm Calm -- 26.55 in899.1 mb - 0.00 in0.0 mm 0.00 in0.0 mm
05:35 AM 38.0°F3.3°C 25.7°F-3.5°C 61% Calm Calm -- 26.54 in898.7 mb - 0.00 in0.0 mm 0.00 in0.0 mm
05:40 AM 37.0°F2.8°C 24.4°F-4.2°C 60% Calm Calm 1.2 mph1.9 kmh 26.54 in898.7 mb - 0.00 in0.0 mm 0.00 in0.0 mm
05:45 AM 38.0°F3.3°C 24.5°F-4.2°C 58% Calm Calm -- 26.55 in899.1 mb - 0.00 in0.0 mm 0.00 in0.0 mm
05:50 AM 38.0°F3.3°C 24.9°F-3.9°C 59% Calm Calm -- 26.54 in898.7 mb - 0.00 in0.0 mm 0.00 in0.0 mm
05:55 AM 37.0°F2.8°C 25.2°F-3.8°C 62% Calm Calm -- 26.55 in899.1 mb - 0.00 in0.0 mm 0.00 in0.0 mm
06:00 AM 37.0°F2.8°C 26.3°F-3.2°C 65% Calm Calm -- 26.54 in898.7 mb - 0.00 in0.0 mm 0.00 in0.0 mm
06:10 AM 36.0°F2.2°C 24.6°F-4.1°C 63% Calm Calm -- 26.55 in899.1 mb - 0.00 in0.0 mm 0.00 in0.0 mm
06:15 AM 37.0°F2.8°C 26.3°F-3.2°C 65% Calm Calm -- 26.55 in899.1 mb - 0.00 in0.0 mm 0.00 in0.0 mm
06:20 AM 36.0°F2.2°C 24.6°F-4.1°C 63% Calm Calm -- 26.54 in898.7 mb - 0.00 in0.0 mm 0.00 in0.0 mm
06:25 AM 36.0°F2.2°C 25.4°F-3.7°C 65% Calm Calm -- 26.56 in899.4 mb - 0.00 in0.0 mm 0.00 in0.0 mm
06:30 AM 36.0°F2.2°C 24.6°F-4.1°C 63% Calm Calm -- 26.56 in899.4 mb - 0.00 in0.0 mm 0.00 in0.0 mm
06:35 AM 36.0°F2.2°C 25.4°F-3.7°C 65% Calm Calm -- 26.55 in899.1 mb - 0.00 in0.0 mm 0.00 in0.0 mm
06:40 AM 37.0°F2.8°C 25.6°F-3.6°C 63% Calm Calm -- 26.56 in899.4 mb - 0.00 in0.0 mm 0.00 in0.0 mm
06:45 AM 36.0°F2.2°C 25.4°F-3.7°C 65% Calm Calm -- 26.56 in899.4 mb - 0.00 in0.0 mm 0.00 in0.0 mm
06:50 AM 35.4°F1.9°C 25.1°F-3.8°C 66% Calm Calm -- 26.56 in899.4 mb - 0.00 in0.0 mm 0.00 in0.0 mm
06:55 AM 35.0°F1.7°C 24.8°F-4.0°C 66% Calm Calm -- 26.56 in899.4 mb - 0.00 in0.0 mm 0.00 in0.0 mm
07:00 AM 35.0°F1.7°C 25.9°F-3.4°C 69% Calm Calm -- 26.56 in899.4 mb - 0.00 in0.0 mm 0.00 in0.0 mm
07:10 AM 37.0°F2.8°C 25.2°F-3.8°C 62% Calm Calm -- 26.56 in899.4 mb - 0.00 in0.0 mm 0.00 in0.0 mm
07:15 AM 35.0°F1.7°C 24.4°F-4.2°C 65% Calm Calm -- 26.56 in899.4 mb - 0.00 in0.0 mm 0.00 in0.0 mm
07:20 AM 35.0°F1.7°C 25.1°F-3.8°C 67% Calm Calm -- 26.56 in899.4 mb - 0.00 in0.0 mm 0.00 in0.0 mm
07:25 AM 35.0°F1.7°C 24.4°F-4.2°C 65% Calm Calm -- 26.56 in899.4 mb - 0.00 in0.0 mm 0.00 in0.0 mm
07:30 AM 35.0°F1.7°C 25.5°F-3.6°C 68% Calm Calm -- 26.57 in899.8 mb - 0.00 in0.0 mm 0.00 in0.0 mm
07:35 AM 35.0°F1.7°C 25.1°F-3.8°C 67% Calm Calm -- 26.57 in899.8 mb - 0.00 in0.0 mm 0.00 in0.0 mm
07:40 AM 36.0°F2.2°C 25.7°F-3.5°C 66% Calm Calm -- 26.57 in899.8 mb - 0.00 in0.0 mm 0.00 in0.0 mm
07:45 AM 35.0°F1.7°C 24.8°F-4.0°C 66% Calm Calm -- 26.57 in899.8 mb - 0.00 in0.0 mm 0.00 in0.0 mm
07:50 AM 35.0°F1.7°C 24.0°F-4.4°C 64% Calm Calm -- 26.57 in899.8 mb - 0.00 in0.0 mm 0.00 in0.0 mm
07:55 AM 35.0°F1.7°C 25.1°F-3.8°C 67% Calm Calm -- 26.57 in899.8 mb - 0.00 in0.0 mm 0.00 in0.0 mm
08:00 AM 35.0°F1.7°C 25.9°F-3.4°C 69% Calm Calm -- 26.57 in899.8 mb - 0.00 in0.0 mm 0.00 in0.0 mm
08:10 AM 35.0°F1.7°C 25.1°F-3.8°C 67% Calm Calm -- 26.57 in899.8 mb - 0.00 in0.0 mm 0.00 in0.0 mm
08:15 AM 35.0°F1.7°C 25.5°F-3.6°C 68% Calm Calm -- 26.57 in899.8 mb - 0.00 in0.0 mm 0.00 in0.0 mm
08:20 AM 35.0°F1.7°C 25.5°F-3.6°C 68% Calm Calm -- 26.57 in899.8 mb - 0.00 in0.0 mm 0.00 in0.0 mm
08:25 AM 35.0°F1.7°C 25.5°F-3.6°C 68% Calm Calm -- 26.57 in899.8 mb - 0.00 in0.0 mm 0.00 in0.0 mm
08:30 AM 36.0°F2.2°C 25.4°F-3.7°C 65% Calm Calm -- 26.57 in899.8 mb - 0.00 in0.0 mm 0.00 in0.0 mm
08:35 AM 37.0°F2.8°C 26.3°F-3.2°C 65% Calm Calm -- 26.56 in899.4 mb - 0.00 in0.0 mm 0.00 in0.0 mm
08:40 AM 37.0°F2.8°C 26.3°F-3.2°C 65% Calm Calm -- 26.56 in899.4 mb - 0.00 in0.0 mm 0.00 in0.0 mm
08:45 AM 38.0°F3.3°C 26.9°F-2.8°C 64% Calm Calm -- 26.56 in899.4 mb - 0.00 in0.0 mm 0.00 in0.0 mm
08:50 AM 38.0°F3.3°C 26.5°F-3.1°C 63% Calm Calm -- 26.56 in899.4 mb - 0.00 in0.0 mm 0.00 in0.0 mm
08:55 AM 39.0°F3.9°C 26.3°F-3.2°C 60% Calm Calm -- 26.55 in899.1 mb - 0.00 in0.0 mm 0.00 in0.0 mm
09:00 AM 39.8°F4.3°C 26.6°F-3.0°C 59% Calm Calm -- 26.55 in899.1 mb - 0.00 in0.0 mm 0.00 in0.0 mm
09:10 AM 42.0°F5.6°C 26.5°F-3.1°C 54% Calm Calm -- 26.55 in899.1 mb - 0.00 in0.0 mm 0.00 in0.0 mm
09:15 AM 42.0°F5.6°C 26.1°F-3.3°C 53% Calm Calm -- 26.55 in899.1 mb - 0.00 in0.0 mm 0.00 in0.0 mm
09:20 AM 43.0°F6.1°C 27.0°F-2.8°C 53% Calm Calm -- 26.55 in899.1 mb - 0.00 in0.0 mm 0.00 in0.0 mm
09:25 AM 44.0°F6.7°C 27.0°F-2.8°C 51% Calm Calm 1.2 mph1.9 kmh 26.54 in898.7 mb - 0.00 in0.0 mm 0.00 in0.0 mm
09:30 AM 44.0°F6.7°C 27.0°F-2.8°C 51% Calm Calm 1.2 mph1.9 kmh 26.54 in898.7 mb - 0.00 in0.0 mm 0.00 in0.0 mm
09:35 AM 45.0°F7.2°C 27.5°F-2.5°C 50% Calm Calm -- 26.54 in898.7 mb - 0.00 in0.0 mm 0.00 in0.0 mm
09:40 AM 46.0°F7.8°C 25.3°F-3.7°C 44% Calm Calm -- 26.54 in898.7 mb - 0.00 in0.0 mm 0.00 in0.0 mm
09:45 AM 46.0°F7.8°C 26.9°F-2.8°C 47% Calm Calm -- 26.53 in898.4 mb - 0.00 in0.0 mm 0.00 in0.0 mm
09:50 AM 46.1°F7.8°C 27.5°F-2.5°C 48% Calm Calm -- 26.53 in898.4 mb - 0.00 in0.0 mm 0.00 in0.0 mm
09:55 AM 47.0°F8.3°C 26.7°F-2.9°C 45% Calm Calm -- 26.53 in898.4 mb - 0.00 in0.0 mm 0.00 in0.0 mm
10:00 AM 47.0°F8.3°C 29.3°F-1.5°C 50% Calm Calm -- 26.52 in898.1 mb - 0.00 in0.0 mm 0.00 in0.0 mm
10:10 AM 47.0°F8.3°C 31.2°F-0.4°C 54% Calm Calm 1.2 mph1.9 kmh 26.52 in898.1 mb - 0.00 in0.0 mm 0.00 in0.0 mm
10:15 AM 48.0°F8.9°C 32.6°F0.3°C 55% Calm Calm 1.2 mph1.9 kmh 26.51 in897.7 mb - 0.00 in0.0 mm 0.00 in0.0 mm
10:20 AM 48.0°F8.9°C 33.0°F0.6°C 56% Calm Calm -- 26.51 in897.7 mb - 0.00 in0.0 mm 0.00 in0.0 mm
10:25 AM 48.0°F8.9°C 34.3°F1.3°C 59% 1.2 mph W1.9 kmh W 2.3 mph3.7 kmh 26.51 in897.7 mb - 0.00 in0.0 mm 0.00 in0.0 mm
10:30 AM 49.0°F9.4°C 34.4°F1.3°C 57% Calm Calm 2.3 mph3.7 kmh 26.50 in897.4 mb - 0.00 in0.0 mm 0.00 in0.0 mm
10:35 AM 50.0°F10.0°C 34.5°F1.4°C 55% Calm Calm -- 26.50 in897.4 mb - 0.00 in0.0 mm 0.00 in0.0 mm
10:40 AM 51.0°F10.6°C 34.9°F1.6°C 54% Calm Calm -- 26.50 in897.4 mb - 0.00 in0.0 mm 0.00 in0.0 mm
10:45 AM 52.0°F11.1°C 35.9°F2.2°C 54% 2.3 mph WNW3.7 kmh WNW 3.5 mph5.6 kmh 26.50 in897.4 mb - 0.00 in0.0 mm 0.00 in0.0 mm
10:50 AM 52.0°F11.1°C 34.4°F1.3°C 51% Calm Calm 1.2 mph1.9 kmh 26.49 in897.1 mb - 0.00 in0.0 mm 0.00 in0.0 mm
10:55 AM 51.0°F10.6°C 34.5°F1.4°C 53% 1.2 mph NW1.9 kmh NW 1.2 mph1.9 kmh 26.49 in897.1 mb - 0.00 in0.0 mm 0.00 in0.0 mm
11:00 AM 52.0°F11.1°C 34.9°F1.6°C 52% Calm Calm 1.2 mph1.9 kmh 26.49 in897.1 mb - 0.00 in0.0 mm 0.00 in0.0 mm
11:10 AM 53.0°F11.7°C 36.8°F2.7°C 54% 1.2 mph W1.9 kmh W 3.5 mph5.6 kmh 26.49 in897.1 mb - 0.00 in0.0 mm 0.00 in0.0 mm
11:15 AM 53.0°F11.7°C 37.3°F2.9°C 55% 2.3 mph W3.7 kmh W 3.5 mph5.6 kmh 26.49 in897.1 mb - 0.00 in0.0 mm 0.00 in0.0 mm
11:20 AM 51.0°F10.6°C 35.4°F1.9°C 55% 2.3 mph NW3.7 kmh NW 2.3 mph3.7 kmh 26.48 in896.7 mb - 0.00 in0.0 mm 0.00 in0.0 mm
11:25 AM 53.0°F11.7°C 35.8°F2.1°C 52% 2.3 mph NW3.7 kmh NW 2.3 mph3.7 kmh 26.48 in896.7 mb - 0.00 in0.0 mm 0.00 in0.0 mm
11:30 AM 53.0°F11.7°C 35.8°F2.1°C 52% 3.5 mph W5.6 kmh W 5.8 mph9.3 kmh 26.47 in896.4 mb - 0.00 in0.0 mm 0.00 in0.0 mm
11:35 AM 53.0°F11.7°C 35.3°F1.8°C 51% 2.3 mph WNW3.7 kmh WNW 2.3 mph3.7 kmh 26.47 in896.4 mb - 0.00 in0.0 mm 0.00 in0.0 mm
11:40 AM 54.0°F12.2°C 35.8°F2.1°C 50% 2.3 mph W3.7 kmh W 3.5 mph5.6 kmh 26.46 in896.0 mb - 0.00 in0.0 mm 0.00 in0.0 mm
11:45 AM 53.0°F11.7°C 35.8°F2.1°C 52% 1.2 mph NW1.9 kmh NW 2.3 mph3.7 kmh 26.46 in896.0 mb - 0.00 in0.0 mm 0.00 in0.0 mm
11:50 AM 54.0°F12.2°C 36.3°F2.4°C 51% Calm Calm -- 26.46 in896.0 mb - 0.00 in0.0 mm 0.00 in0.0 mm
11:55 AM 54.0°F12.2°C 35.3°F1.8°C 49% 1.2 mph NW1.9 kmh NW 1.2 mph1.9 kmh 26.46 in896.0 mb - 0.00 in0.0 mm 0.00 in0.0 mm
12:00 PM 54.0°F12.2°C 34.7°F1.5°C 48% 1.2 mph NW1.9 kmh NW 1.2 mph1.9 kmh 26.46 in896.0 mb - 0.00 in0.0 mm 0.00 in0.0 mm
12:10 PM 54.0°F12.2°C 37.2°F2.9°C 53% 1.2 mph NW1.9 kmh NW 2.3 mph3.7 kmh 26.44 in895.4 mb - 0.00 in0.0 mm 0.00 in0.0 mm
12:15 PM 54.0°F12.2°C 37.2°F2.9°C 53% 3.5 mph NW5.6 kmh NW 5.8 mph9.3 kmh 26.42 in894.7 mb - 0.00 in0.0 mm 0.00 in0.0 mm
12:20 PM 53.0°F11.7°C 36.8°F2.7°C 54% 3.5 mph WSW5.6 kmh WSW 3.5 mph5.6 kmh 26.43 in895.0 mb - 0.00 in0.0 mm 0.00 in0.0 mm
12:25 PM 55.0°F12.8°C 37.2°F2.9°C 51% Calm Calm 1.2 mph1.9 kmh 26.42 in894.7 mb - 0.00 in0.0 mm 0.00 in0.0 mm
12:30 PM 56.0°F13.3°C 39.1°F3.9°C 53% Calm Calm -- 26.42 in894.7 mb - 0.00 in0.0 mm 0.00 in0.0 mm
12:35 PM 57.0°F13.9°C 39.5°F4.2°C 52% 2.3 mph SW3.7 kmh SW 2.3 mph3.7 kmh 26.42 in894.7 mb - 0.00 in0.0 mm 0.00 in0.0 mm
12:40 PM 57.0°F13.9°C 39.5°F4.2°C 52% 2.3 mph WSW3.7 kmh WSW 3.5 mph5.6 kmh 26.42 in894.7 mb - 0.00 in0.0 mm 0.00 in0.0 mm
12:45 PM 57.0°F13.9°C 40.0°F4.4°C 53% 3.5 mph W5.6 kmh W 3.5 mph5.6 kmh 26.42 in894.7 mb - 0.00 in0.0 mm 0.00 in0.0 mm
12:50 PM 57.0°F13.9°C 39.5°F4.2°C 52% 3.5 mph WSW5.6 kmh WSW 3.5 mph5.6 kmh 26.41 in894.3 mb - 0.00 in0.0 mm 0.00 in0.0 mm
12:55 PM 57.0°F13.9°C 39.5°F4.2°C 52% Calm Calm -- 26.41 in894.3 mb - 0.00 in0.0 mm 0.00 in0.0 mm
01:00 PM 57.0°F13.9°C 39.0°F3.9°C 51% 1.2 mph NNW1.9 kmh NNW 2.3 mph3.7 kmh 26.40 in894.0 mb - 0.00 in0.0 mm 0.00 in0.0 mm
01:10 PM 56.0°F13.3°C 38.6°F3.7°C 52% 3.5 mph N5.6 kmh N 3.5 mph5.6 kmh 26.40 in894.0 mb - 0.00 in0.0 mm 0.00 in0.0 mm
01:15 PM 56.0°F13.3°C 39.1°F3.9°C 53% 3.5 mph WNW5.6 kmh WNW 5.8 mph9.3 kmh 26.39 in893.7 mb - 0.00 in0.0 mm 0.00 in0.0 mm
01:20 PM 56.0°F13.3°C 38.6°F3.7°C 52% 4.6 mph NW7.4 kmh NW 9.2 mph14.8 kmh 26.39 in893.7 mb - 0.00 in0.0 mm 0.00 in0.0 mm
01:25 PM 56.3°F13.5°C 38.9°F3.8°C 52% 5.8 mph WNW9.3 kmh WNW 9.2 mph14.8 kmh 26.39 in893.7 mb - 0.00 in0.0 mm 0.00 in0.0 mm
01:30 PM 57.0°F13.9°C 40.0°F4.4°C 53% 5.8 mph W9.3 kmh W 9.2 mph14.8 kmh 26.39 in893.7 mb - 0.00 in0.0 mm 0.00 in0.0 mm
01:35 PM 56.0°F13.3°C 39.1°F3.9°C 53% 5.8 mph WNW9.3 kmh WNW 11.5 mph18.5 kmh 26.39 in893.7 mb - 0.00 in0.0 mm 0.00 in0.0 mm
01:40 PM 57.0°F13.9°C 40.5°F4.7°C 54% 3.5 mph W5.6 kmh W 6.9 mph11.1 kmh 26.38 in893.3 mb - 0.00 in0.0 mm 0.00 in0.0 mm
01:45 PM 56.0°F13.3°C 39.1°F3.9°C 53% 2.3 mph NNE3.7 kmh NNE 2.3 mph3.7 kmh 26.39 in893.7 mb - 0.00 in0.0 mm 0.00 in0.0 mm
01:50 PM 57.0°F13.9°C 40.5°F4.7°C 54% 2.3 mph N3.7 kmh N 2.3 mph3.7 kmh 26.39 in893.7 mb - 0.00 in0.0 mm 0.00 in0.0 mm
01:55 PM 57.0°F13.9°C 40.5°F4.7°C 54% 3.5 mph 5.6 kmh 3.5 mph5.6 kmh 26.39 in893.7 mb - 0.00 in0.0 mm 0.00 in0.0 mm
02:00 PM 57.0°F13.9°C 40.5°F4.7°C 54% 3.5 mph WNW5.6 kmh WNW 3.5 mph5.6 kmh 26.38 in893.3 mb - 0.00 in0.0 mm 0.00 in0.0 mm
02:10 PM 56.0°F13.3°C 40.1°F4.5°C 55% 1.2 mph N1.9 kmh N 3.5 mph5.6 kmh 26.36 in892.7 mb - 0.00 in0.0 mm 0.00 in0.0 mm
02:15 PM 57.0°F13.9°C 40.5°F4.7°C 54% 3.5 mph W5.6 kmh W 3.5 mph5.6 kmh 26.37 in893.0 mb - 0.00 in0.0 mm 0.00 in0.0 mm
02:20 PM 56.0°F13.3°C 40.1°F4.5°C 55% 4.6 mph WSW7.4 kmh WSW 6.9 mph11.1 kmh 26.36 in892.7 mb - 0.00 in0.0 mm 0.00 in0.0 mm
02:25 PM 56.0°F13.3°C 40.5°F4.7°C 56% 3.5 mph N5.6 kmh N 3.5 mph5.6 kmh 26.36 in892.7 mb - 0.00 in0.0 mm 0.00 in0.0 mm
02:30 PM 56.0°F13.3°C 39.6°F4.2°C 54% 3.5 mph W5.6 kmh W 6.9 mph11.1 kmh 26.36 in892.7 mb - 0.00 in0.0 mm 0.00 in0.0 mm
02:35 PM 56.0°F13.3°C 39.6°F4.2°C 54% 3.5 mph NW5.6 kmh NW 3.5 mph5.6 kmh 26.36 in892.7 mb - 0.00 in0.0 mm 0.00 in0.0 mm
02:40 PM 56.0°F13.3°C 39.1°F3.9°C 53% 5.8 mph NNW9.3 kmh NNW 9.2 mph14.8 kmh 26.36 in892.7 mb - 0.00 in0.0 mm 0.00 in0.0 mm
02:45 PM 57.8°F14.3°C 39.8°F4.3°C 51% 1.2 mph N1.9 kmh N 9.2 mph14.8 kmh 26.35 in892.3 mb - 0.00 in0.0 mm 0.00 in0.0 mm
02:50 PM 58.0°F14.4°C 40.0°F4.4°C 51% 1.2 mph N1.9 kmh N 1.2 mph1.9 kmh 26.35 in892.3 mb - 0.00 in0.0 mm 0.00 in0.0 mm
02:55 PM 58.0°F14.4°C 40.0°F4.4°C 51% Calm Calm 1.2 mph1.9 kmh 26.35 in892.3 mb - 0.00 in0.0 mm 0.00 in0.0 mm
03:00 PM 57.0°F13.9°C 39.5°F4.2°C 52% 1.2 mph N1.9 kmh N 2.3 mph3.7 kmh 26.35 in892.3 mb - 0.00 in0.0 mm 0.00 in0.0 mm
03:10 PM 58.0°F14.4°C 40.0°F4.4°C 51% Calm Calm 1.2 mph1.9 kmh 26.35 in892.3 mb - 0.00 in0.0 mm 0.00 in0.0 mm
03:15 PM 57.0°F13.9°C 39.0°F3.9°C 51% 3.5 mph W5.6 kmh W 6.9 mph11.1 kmh 26.35 in892.3 mb - 0.00 in0.0 mm 0.00 in0.0 mm
03:20 PM 56.0°F13.3°C 38.6°F3.7°C 52% 1.2 mph NNW1.9 kmh NNW 1.2 mph1.9 kmh 26.35 in892.3 mb - 0.00 in0.0 mm 0.00 in0.0 mm
03:25 PM 56.0°F13.3°C 39.6°F4.2°C 54% 3.5 mph W5.6 kmh W 6.9 mph11.1 kmh 26.35 in892.3 mb - 0.00 in0.0 mm 0.00 in0.0 mm
03:30 PM 56.0°F13.3°C 39.6°F4.2°C 54% 2.3 mph NW3.7 kmh NW 6.9 mph11.1 kmh 26.34 in892.0 mb - 0.00 in0.0 mm 0.00 in0.0 mm
03:35 PM 56.0°F13.3°C 39.6°F4.2°C 54% 2.3 mph NW3.7 kmh NW 3.5 mph5.6 kmh 26.34 in892.0 mb - 0.00 in0.0 mm 0.00 in0.0 mm
03:40 PM 55.0°F12.8°C 39.1°F3.9°C 55% 3.5 mph NW5.6 kmh NW 3.5 mph5.6 kmh 26.34 in892.0 mb - 0.00 in0.0 mm 0.00 in0.0 mm
03:45 PM 55.0°F12.8°C 38.6°F3.7°C 54% 3.5 mph NW5.6 kmh NW 3.5 mph5.6 kmh 26.35 in892.3 mb - 0.00 in0.0 mm 0.00 in0.0 mm
03:50 PM 55.0°F12.8°C 40.5°F4.7°C 58% 3.5 mph NNE5.6 kmh NNE 3.5 mph5.6 kmh 26.35 in892.3 mb - 0.00 in0.0 mm 0.00 in0.0 mm
03:55 PM 54.0°F12.2°C 39.5°F4.2°C 58% 3.5 mph WNW5.6 kmh WNW 6.9 mph11.1 kmh 26.35 in892.3 mb - 0.00 in0.0 mm 0.00 in0.0 mm
04:00 PM 55.0°F12.8°C 40.9°F4.9°C 59% 3.5 mph WNW5.6 kmh WNW 3.5 mph5.6 kmh 26.35 in892.3 mb - 0.00 in0.0 mm 0.00 in0.0 mm
04:10 PM 53.0°F11.7°C 39.9°F4.4°C 61% 2.3 mph NW3.7 kmh NW 5.8 mph9.3 kmh 26.35 in892.3 mb - 0.00 in0.0 mm 0.00 in0.0 mm
04:15 PM 53.0°F11.7°C 39.5°F4.2°C 60% 2.3 mph NNW3.7 kmh NNW 3.5 mph5.6 kmh 26.35 in892.3 mb - 0.00 in0.0 mm 0.00 in0.0 mm
04:20 PM 53.0°F11.7°C 38.6°F3.7°C 58% 2.3 mph NW3.7 kmh NW 2.3 mph3.7 kmh 26.36 in892.7 mb - 0.00 in0.0 mm 0.00 in0.0 mm
04:25 PM 52.0°F11.1°C 40.2°F4.6°C 64% 2.3 mph N3.7 kmh N 3.5 mph5.6 kmh 26.36 in892.7 mb - 0.00 in0.0 mm 0.00 in0.0 mm
04:30 PM 50.0°F10.0°C 38.3°F3.5°C 64% 3.5 mph NW5.6 kmh NW 3.5 mph5.6 kmh 26.36 in892.7 mb - 0.00 in0.0 mm 0.00 in0.0 mm
04:35 PM 50.0°F10.0°C 39.1°F3.9°C 66% 3.5 mph W5.6 kmh W 3.5 mph5.6 kmh 26.36 in892.7 mb - 0.00 in0.0 mm 0.00 in0.0 mm
04:40 PM 49.0°F9.4°C 38.5°F3.6°C 67% Calm Calm 1.2 mph1.9 kmh 26.36 in892.7 mb - 0.00 in0.0 mm 0.00 in0.0 mm
04:45 PM 48.0°F8.9°C 38.7°F3.7°C 70% 2.3 mph NNW3.7 kmh NNW 3.5 mph5.6 kmh 26.36 in892.7 mb - 0.00 in0.0 mm 0.00 in0.0 mm
04:50 PM 49.0°F9.4°C 39.3°F4.1°C 69% 3.5 mph W5.6 kmh W 6.9 mph11.1 kmh 26.37 in893.0 mb - 0.00 in0.0 mm 0.00 in0.0 mm
04:55 PM 48.4°F9.1°C 38.7°F3.7°C 69% 2.3 mph WNW3.7 kmh WNW 6.9 mph11.1 kmh 26.37 in893.0 mb - 0.00 in0.0 mm 0.00 in0.0 mm
05:00 PM 48.0°F8.9°C 38.3°F3.5°C 69% 2.3 mph NNW3.7 kmh NNW 2.3 mph3.7 kmh 26.37 in893.0 mb - 0.00 in0.0 mm 0.00 in0.0 mm
05:10 PM 48.0°F8.9°C 38.3°F3.5°C 69% 1.2 mph N1.9 kmh N 2.3 mph3.7 kmh 26.37 in893.0 mb - 0.00 in0.0 mm 0.00 in0.0 mm
05:15 PM 48.0°F8.9°C 39.0°F3.9°C 71% 2.3 mph WNW3.7 kmh WNW 2.3 mph3.7 kmh 26.38 in893.3 mb - 0.00 in0.0 mm 0.00 in0.0 mm
05:20 PM 48.0°F8.9°C 39.0°F3.9°C 71% 1.2 mph N1.9 kmh N 2.3 mph3.7 kmh 26.37 in893.0 mb - 0.00 in0.0 mm 0.00 in0.0 mm
05:25 PM 48.0°F8.9°C 39.0°F3.9°C 71% 1.2 mph NW1.9 kmh NW 2.3 mph3.7 kmh 26.37 in893.0 mb - 0.00 in0.0 mm 0.00 in0.0 mm
05:30 PM 48.0°F8.9°C 39.0°F3.9°C 71% Calm Calm -- 26.37 in893.0 mb - 0.00 in0.0 mm 0.00 in0.0 mm
05:35 PM 47.1°F8.4°C 38.1°F3.4°C 71% Calm Calm 1.2 mph1.9 kmh 26.37 in893.0 mb - 0.00 in0.0 mm 0.00 in0.0 mm
05:40 PM 47.0°F8.3°C 38.1°F3.4°C 71% Calm Calm 1.2 mph1.9 kmh 26.37 in893.0 mb - 0.00 in0.0 mm 0.00 in0.0 mm
05:45 PM 47.0°F8.3°C 38.1°F3.4°C 71% Calm Calm 1.2 mph1.9 kmh 26.37 in893.0 mb - 0.00 in0.0 mm 0.00 in0.0 mm
05:50 PM 47.0°F8.3°C 38.4°F3.6°C 72% Calm Calm -- 26.38 in893.3 mb - 0.00 in0.0 mm 0.00 in0.0 mm
05:55 PM 47.0°F8.3°C 38.8°F3.8°C 73% 2.3 mph WNW3.7 kmh WNW 2.3 mph3.7 kmh 26.39 in893.7 mb - 0.00 in0.0 mm 0.00 in0.0 mm
06:00 PM 47.0°F8.3°C 38.8°F3.8°C 73% Calm Calm -- 26.38 in893.3 mb - 0.00 in0.0 mm 0.00 in0.0 mm
06:10 PM 46.0°F7.8°C 38.5°F3.6°C 75% 2.3 mph NNW3.7 kmh NNW 3.5 mph5.6 kmh 26.38 in893.3 mb - 0.00 in0.0 mm 0.00 in0.0 mm
06:15 PM 46.0°F7.8°C 38.5°F3.6°C 75% Calm Calm -- 26.38 in893.3 mb - 0.00 in0.0 mm 0.00 in0.0 mm
06:20 PM 46.0°F7.8°C 38.5°F3.6°C 75% Calm Calm 1.2 mph1.9 kmh 26.39 in893.7 mb - 0.00 in0.0 mm 0.00 in0.0 mm
06:25 PM 46.0°F7.8°C 38.5°F3.6°C 75% Calm Calm 1.2 mph1.9 kmh 26.39 in893.7 mb - 0.00 in0.0 mm 0.00 in0.0 mm
06:30 PM 46.0°F7.8°C 38.5°F3.6°C 75% Calm Calm -- 26.39 in893.7 mb - 0.00 in0.0 mm 0.00 in0.0 mm
06:35 PM 46.0°F7.8°C 38.5°F3.6°C 75% Calm Calm -- 26.38 in893.3 mb - 0.00 in0.0 mm 0.00 in0.0 mm
06:40 PM 46.0°F7.8°C 38.5°F3.6°C 75% Calm Calm -- 26.38 in893.3 mb - 0.00 in0.0 mm 0.00 in0.0 mm
06:45 PM 46.0°F7.8°C 38.5°F3.6°C 75% Calm Calm -- 26.38 in893.3 mb - 0.00 in0.0 mm 0.00 in0.0 mm
06:50 PM 46.0°F7.8°C 38.5°F3.6°C 75% Calm Calm 1.2 mph1.9 kmh 26.39 in893.7 mb - 0.00 in0.0 mm 0.00 in0.0 mm
06:55 PM 46.0°F7.8°C 38.5°F3.6°C 75% Calm Calm -- 26.38 in893.3 mb - 0.00 in0.0 mm 0.00 in0.0 mm
07:00 PM 46.0°F7.8°C 38.5°F3.6°C 75% Calm Calm -- 26.39 in893.7 mb - 0.00 in0.0 mm 0.00 in0.0 mm
07:10 PM 45.0°F7.2°C 37.9°F3.3°C 76% 1.2 mph N1.9 kmh N 1.2 mph1.9 kmh 26.38 in893.3 mb - 0.00 in0.0 mm 0.00 in0.0 mm
07:15 PM 45.0°F7.2°C 37.9°F3.3°C 76% Calm Calm 1.2 mph1.9 kmh 26.38 in893.3 mb - 0.00 in0.0 mm 0.00 in0.0 mm
07:20 PM 45.0°F7.2°C 38.2°F3.4°C 77% 1.2 mph NNW1.9 kmh NNW 1.2 mph1.9 kmh 26.39 in893.7 mb - 0.00 in0.0 mm 0.00 in0.0 mm
07:25 PM 45.0°F7.2°C 38.6°F3.7°C 78% Calm Calm -- 26.39 in893.7 mb - 0.00 in0.0 mm 0.00 in0.0 mm
07:30 PM 45.0°F7.2°C 38.9°F3.8°C 79% 1.2 mph N1.9 kmh N 2.3 mph3.7 kmh 26.38 in893.3 mb - 0.00 in0.0 mm 0.00 in0.0 mm
07:35 PM 44.0°F6.7°C 37.9°F3.3°C 79% Calm Calm 1.2 mph1.9 kmh 26.39 in893.7 mb - 0.00 in0.0 mm 0.00 in0.0 mm
07:40 PM 44.0°F6.7°C 37.9°F3.3°C 79% Calm Calm -- 26.39 in893.7 mb - 0.00 in0.0 mm 0.00 in0.0 mm
07:45 PM 44.0°F6.7°C 38.2°F3.4°C 80% Calm Calm -- 26.39 in893.7 mb - 0.00 in0.0 mm 0.00 in0.0 mm
07:50 PM 44.0°F6.7°C 38.9°F3.8°C 82% Calm Calm 1.2 mph1.9 kmh 26.39 in893.7 mb - 0.00 in0.0 mm 0.00 in0.0 mm
07:55 PM 44.0°F6.7°C 38.9°F3.8°C 82% Calm Calm 1.2 mph1.9 kmh 26.39 in893.7 mb - 0.00 in0.0 mm 0.00 in0.0 mm
08:00 PM 44.0°F6.7°C 38.9°F3.8°C 82% Calm Calm -- 26.39 in893.7 mb - 0.00 in0.0 mm 0.00 in0.0 mm
08:10 PM 44.0°F6.7°C 38.5°F3.6°C 81% Calm Calm -- 26.38 in893.3 mb - 0.00 in0.0 mm 0.00 in0.0 mm
08:15 PM 44.0°F6.7°C 38.5°F3.6°C 81% Calm Calm -- 26.38 in893.3 mb - 0.00 in0.0 mm 0.00 in0.0 mm
08:20 PM 44.0°F6.7°C 38.5°F3.6°C 81% Calm Calm -- 26.39 in893.7 mb - 0.00 in0.0 mm 0.00 in0.0 mm
08:25 PM 44.0°F6.7°C 38.9°F3.8°C 82% Calm Calm -- 26.38 in893.3 mb - 0.00 in0.0 mm 0.00 in0.0 mm
08:30 PM 44.0°F6.7°C 38.9°F3.8°C 82% Calm Calm -- 26.37 in893.0 mb - 0.00 in0.0 mm 0.00 in0.0 mm
08:35 PM 44.0°F6.7°C 38.9°F3.8°C 82% Calm Calm -- 26.38 in893.3 mb - 0.00 in0.0 mm 0.00 in0.0 mm
08:40 PM 44.0°F6.7°C 39.2°F4.0°C 83% 1.2 mph NNW1.9 kmh NNW 1.2 mph1.9 kmh 26.37 in893.0 mb - 0.00 in0.0 mm 0.00 in0.0 mm
08:45 PM 44.0°F6.7°C 39.2°F4.0°C 83% Calm Calm 1.2 mph1.9 kmh 26.38 in893.3 mb - 0.00 in0.0 mm 0.00 in0.0 mm
08:50 PM 44.0°F6.7°C 39.2°F4.0°C 83% Calm Calm -- 26.38 in893.3 mb - 0.00 in0.0 mm 0.00 in0.0 mm
08:55 PM 44.0°F6.7°C 38.9°F3.8°C 82% Calm Calm -- 26.38 in893.3 mb - 0.00 in0.0 mm 0.00 in0.0 mm
09:00 PM 44.0°F6.7°C 39.2°F4.0°C 83% 1.2 mph NNW1.9 kmh NNW 1.2 mph1.9 kmh 26.37 in893.0 mb - 0.00 in0.0 mm 0.00 in0.0 mm
09:10 PM 43.0°F6.1°C 38.8°F3.8°C 85% Calm Calm 1.2 mph1.9 kmh 26.37 in893.0 mb - 0.00 in0.0 mm 0.00 in0.0 mm
09:15 PM 44.0°F6.7°C 39.5°F4.2°C 84% Calm Calm -- 26.37 in893.0 mb - 0.00 in0.0 mm 0.00 in0.0 mm
09:20 PM 44.0°F6.7°C 39.2°F4.0°C 83% Calm Calm -- 26.38 in893.3 mb - 0.00 in0.0 mm 0.00 in0.0 mm
09:25 PM 44.0°F6.7°C 39.5°F4.2°C 84% Calm Calm -- 26.37 in893.0 mb - 0.00 in0.0 mm 0.00 in0.0 mm
09:30 PM 44.0°F6.7°C 39.8°F4.3°C 85% Calm Calm -- 26.38 in893.3 mb - 0.00 in0.0 mm 0.00 in0.0 mm
09:35 PM 43.5°F6.4°C 39.6°F4.2°C 86% Calm Calm -- 26.38 in893.3 mb - 0.00 in0.0 mm 0.00 in0.0 mm
09:40 PM 43.0°F6.1°C 39.1°F3.9°C 86% Calm Calm 1.2 mph1.9 kmh 26.37 in893.0 mb - 0.00 in0.0 mm 0.00 in0.0 mm
09:45 PM 43.0°F6.1°C 39.7°F4.3°C 88% 1.2 mph NNW1.9 kmh NNW 1.2 mph1.9 kmh 26.37 in893.0 mb - 0.00 in0.0 mm 0.00 in0.0 mm
09:50 PM 43.0°F6.1°C 39.7°F4.3°C 88% 1.2 mph N1.9 kmh N 1.2 mph1.9 kmh 26.37 in893.0 mb - 0.00 in0.0 mm 0.00 in0.0 mm
09:55 PM 43.0°F6.1°C 39.4°F4.1°C 87% Calm Calm -- 26.37 in893.0 mb - 0.00 in0.0 mm 0.00 in0.0 mm
10:00 PM 43.0°F6.1°C 39.7°F4.3°C 88% Calm Calm -- 26.37 in893.0 mb - 0.00 in0.0 mm 0.00 in0.0 mm
10:10 PM 43.0°F6.1°C 40.3°F4.6°C 90% Calm Calm -- 26.37 in893.0 mb - 0.00 in0.0 mm 0.00 in0.0 mm
10:15 PM 42.0°F5.6°C 39.0°F3.9°C 89% Calm Calm -- 26.36 in892.7 mb - 0.00 in0.0 mm 0.00 in0.0 mm
10:20 PM 42.0°F5.6°C 39.0°F3.9°C 89% Calm Calm -- 26.36 in892.7 mb - 0.00 in0.0 mm 0.00 in0.0 mm
10:25 PM 42.0°F5.6°C 39.3°F4.1°C 90% Calm Calm -- 26.36 in892.7 mb - 0.00 in0.0 mm 0.00 in0.0 mm
10:30 PM 42.0°F5.6°C 39.8°F4.3°C 92% Calm Calm -- 26.36 in892.7 mb - 0.00 in0.0 mm 0.00 in0.0 mm
10:35 PM 42.0°F5.6°C 39.8°F4.3°C 92% Calm Calm 1.2 mph1.9 kmh 26.36 in892.7 mb - 0.00 in0.0 mm 0.00 in0.0 mm
10:40 PM 42.0°F5.6°C 40.1°F4.5°C 93% Calm Calm -- 26.36 in892.7 mb - 0.00 in0.0 mm 0.00 in0.0 mm
10:45 PM 42.0°F5.6°C 39.8°F4.3°C 92% Calm Calm -- 26.35 in892.3 mb - 0.00 in0.0 mm 0.00 in0.0 mm
10:50 PM 42.0°F5.6°C 39.8°F4.3°C 92% 1.2 mph N1.9 kmh N 1.2 mph1.9 kmh 26.36 in892.7 mb - 0.00 in0.0 mm 0.00 in0.0 mm
10:55 PM 42.0°F5.6°C 40.1°F4.5°C 93% Calm Calm -- 26.35 in892.3 mb - 0.00 in0.0 mm 0.00 in0.0 mm
11:00 PM 42.0°F5.6°C 39.8°F4.3°C 92% Calm Calm 1.2 mph1.9 kmh 26.36 in892.7 mb - 0.01 in0.3 mm 0.01 in0.3 mm
11:10 PM 42.0°F5.6°C 40.1°F4.5°C 93% Calm Calm 1.2 mph1.9 kmh 26.35 in892.3 mb - 0.01 in0.3 mm 0.01 in0.3 mm
11:15 PM 42.0°F5.6°C 40.1°F4.5°C 93% Calm Calm -- 26.35 in892.3 mb - 0.01 in0.3 mm 0.01 in0.3 mm
11:20 PM 42.0°F5.6°C 40.1°F4.5°C 93% Calm Calm -- 26.36 in892.7 mb - 0.01 in0.3 mm 0.01 in0.3 mm
11:25 PM 42.0°F5.6°C 40.4°F4.7°C 94% Calm Calm -- 26.35 in892.3 mb - 0.01 in0.3 mm 0.01 in0.3 mm
11:30 PM 42.0°F5.6°C 40.7°F4.8°C 95% Calm Calm -- 26.35 in892.3 mb - 0.01 in0.3 mm 0.01 in0.3 mm
11:35 PM 42.0°F5.6°C 40.7°F4.8°C 95% Calm Calm -- 26.34 in892.0 mb - 0.02 in0.5 mm 0.02 in0.5 mm
11:40 PM 42.0°F5.6°C 40.7°F4.8°C 95% Calm Calm -- 26.35 in892.3 mb - 0.02 in0.5 mm 0.02 in0.5 mm
11:45 PM 42.0°F5.6°C 40.7°F4.8°C 95% Calm Calm -- 26.35 in892.3 mb - 0.02 in0.5 mm 0.02 in0.5 mm
11:50 PM 42.0°F5.6°C 40.7°F4.8°C 95% Calm Calm -- 26.36 in892.7 mb - 0.03 in0.8 mm 0.03 in0.8 mm
11:55 PM 41.0°F5.0°C 37.1°F2.8°C 86% 1.2 mph WNW1.9 kmh WNW 2.3 mph3.7 kmh 26.37 in893.0 mb - 0.04 in1.0 mm 0.04 in1.0 mm